sensor_id;sensor_type;location;lat;lon;timestamp;P1;durP1;ratioP1;P2;durP2;ratioP2
19519;SDS011;9904;52.246;20.898;2023-07-13T00:02:04;19.50;;;11.30;;
19519;SDS011;9904;52.246;20.898;2023-07-13T00:04:31;23.50;;;12.43;;
19519;SDS011;9904;52.246;20.898;2023-07-13T00:06:59;16.47;;;10.80;;
19519;SDS011;9904;52.246;20.898;2023-07-13T00:09:26;22.43;;;11.17;;
19519;SDS011;9904;52.246;20.898;2023-07-13T00:11:54;21.77;;;12.07;;
19519;SDS011;9904;52.246;20.898;2023-07-13T00:14:23;18.50;;;11.27;;
19519;SDS011;9904;52.246;20.898;2023-07-13T00:16:50;17.50;;;12.03;;
19519;SDS011;9904;52.246;20.898;2023-07-13T00:19:17;20.17;;;11.93;;
19519;SDS011;9904;52.246;20.898;2023-07-13T00:21:44;19.13;;;12.13;;
19519;SDS011;9904;52.246;20.898;2023-07-13T00:24:14;18.10;;;12.57;;
19519;SDS011;9904;52.246;20.898;2023-07-13T00:26:42;20.33;;;12.90;;
19519;SDS011;9904;52.246;20.898;2023-07-13T00:29:12;20.70;;;12.03;;
19519;SDS011;9904;52.246;20.898;2023-07-13T00:31:39;18.43;;;12.87;;
19519;SDS011;9904;52.246;20.898;2023-07-13T00:34:06;19.23;;;12.90;;
19519;SDS011;9904;52.246;20.898;2023-07-13T00:36:33;19.83;;;12.63;;
19519;SDS011;9904;52.246;20.898;2023-07-13T00:39:00;20.47;;;13.10;;
19519;SDS011;9904;52.246;20.898;2023-07-13T00:41:27;20.23;;;13.57;;
19519;SDS011;9904;52.246;20.898;2023-07-13T00:43:54;20.23;;;13.07;;
19519;SDS011;9904;52.246;20.898;2023-07-13T00:46:25;24.90;;;13.83;;
19519;SDS011;9904;52.246;20.898;2023-07-13T00:48:56;18.10;;;13.30;;
19519;SDS011;9904;52.246;20.898;2023-07-13T00:51:28;20.07;;;11.27;;
19519;SDS011;9904;52.246;20.898;2023-07-13T00:53:58;22.63;;;14.87;;
19519;SDS011;9904;52.246;20.898;2023-07-13T00:56:26;23.67;;;13.90;;
19519;SDS011;9904;52.246;20.898;2023-07-13T00:58:53;21.07;;;13.97;;
19519;SDS011;9904;52.246;20.898;2023-07-13T01:01:20;28.70;;;15.30;;
19519;SDS011;9904;52.246;20.898;2023-07-13T01:03:47;23.80;;;14.63;;
19519;SDS011;9904;52.246;20.898;2023-07-13T01:06:14;20.97;;;13.00;;
19519;SDS011;9904;52.246;20.898;2023-07-13T01:08:41;22.17;;;12.93;;
19519;SDS011;9904;52.246;20.898;2023-07-13T01:11:07;21.60;;;13.57;;
19519;SDS011;9904;52.246;20.898;2023-07-13T01:13:34;25.50;;;13.60;;
19519;SDS011;9904;52.246;20.898;2023-07-13T01:16:02;22.30;;;14.67;;
19519;SDS011;9904;52.246;20.898;2023-07-13T01:18:35;20.70;;;13.30;;
19519;SDS011;9904;52.246;20.898;2023-07-13T01:21:03;22.00;;;14.30;;
19519;SDS011;9904;52.246;20.898;2023-07-13T01:23:30;18.77;;;13.17;;
19519;SDS011;9904;52.246;20.898;2023-07-13T01:25:58;20.57;;;12.80;;
19519;SDS011;9904;52.246;20.898;2023-07-13T01:28:25;22.70;;;13.87;;
19519;SDS011;9904;52.246;20.898;2023-07-13T01:30:54;20.50;;;12.73;;
19519;SDS011;9904;52.246;20.898;2023-07-13T01:33:21;19.13;;;13.93;;
19519;SDS011;9904;52.246;20.898;2023-07-13T01:35:48;22.63;;;14.30;;
19519;SDS011;9904;52.246;20.898;2023-07-13T01:38:14;18.10;;;13.47;;
19519;SDS011;9904;52.246;20.898;2023-07-13T01:40:42;22.20;;;13.40;;
19519;SDS011;9904;52.246;20.898;2023-07-13T01:43:09;24.40;;;14.03;;
19519;SDS011;9904;52.246;20.898;2023-07-13T01:45:36;26.53;;;14.90;;
19519;SDS011;9904;52.246;20.898;2023-07-13T01:48:04;23.07;;;14.50;;
19519;SDS011;9904;52.246;20.898;2023-07-13T01:50:33;23.30;;;13.40;;
19519;SDS011;9904;52.246;20.898;2023-07-13T01:53:00;22.90;;;14.33;;
19519;SDS011;9904;52.246;20.898;2023-07-13T01:55:27;35.40;;;14.90;;
19519;SDS011;9904;52.246;20.898;2023-07-13T01:57:53;21.43;;;14.63;;
19519;SDS011;9904;52.246;20.898;2023-07-13T02:00:20;23.00;;;14.57;;
19519;SDS011;9904;52.246;20.898;2023-07-13T02:02:47;20.73;;;13.20;;
19519;SDS011;9904;52.246;20.898;2023-07-13T02:05:14;23.73;;;13.37;;
19519;SDS011;9904;52.246;20.898;2023-07-13T02:07:41;20.97;;;14.60;;
19519;SDS011;9904;52.246;20.898;2023-07-13T02:10:08;25.83;;;14.63;;
19519;SDS011;9904;52.246;20.898;2023-07-13T02:12:36;26.33;;;14.63;;
19519;SDS011;9904;52.246;20.898;2023-07-13T02:15:03;25.70;;;13.93;;
19519;SDS011;9904;52.246;20.898;2023-07-13T02:17:30;26.93;;;14.37;;
19519;SDS011;9904;52.246;20.898;2023-07-13T02:19:57;23.83;;;13.83;;
19519;SDS011;9904;52.246;20.898;2023-07-13T02:22:24;24.20;;;14.43;;
19519;SDS011;9904;52.246;20.898;2023-07-13T02:24:50;21.87;;;13.60;;
19519;SDS011;9904;52.246;20.898;2023-07-13T02:27:17;21.97;;;14.00;;
19519;SDS011;9904;52.246;20.898;2023-07-13T02:29:44;25.10;;;14.53;;
19519;SDS011;9904;52.246;20.898;2023-07-13T02:32:11;25.10;;;14.40;;
19519;SDS011;9904;52.246;20.898;2023-07-13T02:34:38;24.90;;;14.77;;
19519;SDS011;9904;52.246;20.898;2023-07-13T02:37:08;29.63;;;14.10;;
19519;SDS011;9904;52.246;20.898;2023-07-13T02:39:34;22.27;;;14.30;;
19519;SDS011;9904;52.246;20.898;2023-07-13T02:42:01;27.97;;;14.43;;
19519;SDS011;9904;52.246;20.898;2023-07-13T02:44:27;23.60;;;13.70;;
19519;SDS011;9904;52.246;20.898;2023-07-13T02:46:54;28.73;;;16.27;;
19519;SDS011;9904;52.246;20.898;2023-07-13T02:49:21;25.53;;;14.97;;
19519;SDS011;9904;52.246;20.898;2023-07-13T02:51:47;20.80;;;13.47;;
19519;SDS011;9904;52.246;20.898;2023-07-13T02:54:14;29.67;;;14.50;;
19519;SDS011;9904;52.246;20.898;2023-07-13T02:56:41;18.93;;;12.23;;
19519;SDS011;9904;52.246;20.898;2023-07-13T02:59:08;20.33;;;13.07;;
19519;SDS011;9904;52.246;20.898;2023-07-13T03:01:37;21.70;;;13.30;;
19519;SDS011;9904;52.246;20.898;2023-07-13T03:04:03;22.57;;;14.30;;
19519;SDS011;9904;52.246;20.898;2023-07-13T03:06:31;23.20;;;13.97;;
19519;SDS011;9904;52.246;20.898;2023-07-13T03:08:59;22.20;;;13.77;;
19519;SDS011;9904;52.246;20.898;2023-07-13T03:11:26;23.00;;;13.90;;
19519;SDS011;9904;52.246;20.898;2023-07-13T03:13:53;21.47;;;13.47;;
19519;SDS011;9904;52.246;20.898;2023-07-13T03:16:21;26.27;;;15.40;;
19519;SDS011;9904;52.246;20.898;2023-07-13T03:18:48;25.67;;;14.07;;
19519;SDS011;9904;52.246;20.898;2023-07-13T03:21:15;25.40;;;14.13;;
19519;SDS011;9904;52.246;20.898;2023-07-13T03:23:42;22.17;;;14.70;;
19519;SDS011;9904;52.246;20.898;2023-07-13T03:26:09;19.37;;;12.03;;
19519;SDS011;9904;52.246;20.898;2023-07-13T03:28:43;21.20;;;13.77;;
19519;SDS011;9904;52.246;20.898;2023-07-13T03:31:16;28.00;;;14.77;;
19519;SDS011;9904;52.246;20.898;2023-07-13T03:33:47;27.63;;;14.07;;
19519;SDS011;9904;52.246;20.898;2023-07-13T03:36:24;25.73;;;14.33;;
19519;SDS011;9904;52.246;20.898;2023-07-13T03:38:53;18.87;;;12.93;;
19519;SDS011;9904;52.246;20.898;2023-07-13T03:41:22;20.70;;;11.93;;
19519;SDS011;9904;52.246;20.898;2023-07-13T03:43:49;29.43;;;14.83;;
19519;SDS011;9904;52.246;20.898;2023-07-13T03:46:16;29.33;;;13.37;;
19519;SDS011;9904;52.246;20.898;2023-07-13T03:48:44;21.97;;;14.03;;
19519;SDS011;9904;52.246;20.898;2023-07-13T03:51:14;22.70;;;13.63;;
19519;SDS011;9904;52.246;20.898;2023-07-13T03:53:42;21.27;;;12.37;;
19519;SDS011;9904;52.246;20.898;2023-07-13T03:56:09;25.97;;;13.73;;
19519;SDS011;9904;52.246;20.898;2023-07-13T03:58:37;29.00;;;14.80;;
19519;SDS011;9904;52.246;20.898;2023-07-13T04:01:06;21.07;;;13.20;;
19519;SDS011;9904;52.246;20.898;2023-07-13T04:03:34;24.30;;;13.20;;
19519;SDS011;9904;52.246;20.898;2023-07-13T04:06:01;27.47;;;14.87;;
19519;SDS011;9904;52.246;20.898;2023-07-13T04:08:30;26.87;;;14.03;;
19519;SDS011;9904;52.246;20.898;2023-07-13T04:10:58;27.53;;;14.17;;
19519;SDS011;9904;52.246;20.898;2023-07-13T04:13:25;27.97;;;15.27;;
19519;SDS011;9904;52.246;20.898;2023-07-13T04:15:52;23.17;;;13.90;;
19519;SDS011;9904;52.246;20.898;2023-07-13T04:18:19;22.77;;;14.63;;
19519;SDS011;9904;52.246;20.898;2023-07-13T04:20:47;26.07;;;15.13;;
19519;SDS011;9904;52.246;20.898;2023-07-13T04:23:14;28.53;;;13.43;;
19519;SDS011;9904;52.246;20.898;2023-07-13T04:25:44;24.13;;;13.70;;
19519;SDS011;9904;52.246;20.898;2023-07-13T04:28:12;18.70;;;12.83;;
19519;SDS011;9904;52.246;20.898;2023-07-13T04:30:39;24.37;;;16.07;;
19519;SDS011;9904;52.246;20.898;2023-07-13T04:33:06;31.60;;;13.10;;
19519;SDS011;9904;52.246;20.898;2023-07-13T04:35:32;30.20;;;13.67;;
19519;SDS011;9904;52.246;20.898;2023-07-13T04:38:00;20.53;;;12.67;;
19519;SDS011;9904;52.246;20.898;2023-07-13T04:40:28;16.90;;;11.27;;
19519;SDS011;9904;52.246;20.898;2023-07-13T04:42:55;22.47;;;11.63;;
19519;SDS011;9904;52.246;20.898;2023-07-13T04:45:22;21.83;;;11.17;;
19519;SDS011;9904;52.246;20.898;2023-07-13T04:47:50;21.33;;;13.27;;
19519;SDS011;9904;52.246;20.898;2023-07-13T04:50:17;22.10;;;12.80;;
19519;SDS011;9904;52.246;20.898;2023-07-13T04:52:49;21.77;;;14.13;;
19519;SDS011;9904;52.246;20.898;2023-07-13T04:55:17;18.00;;;11.60;;
19519;SDS011;9904;52.246;20.898;2023-07-13T04:57:44;31.17;;;15.87;;
19519;SDS011;9904;52.246;20.898;2023-07-13T05:00:12;21.73;;;14.83;;
19519;SDS011;9904;52.246;20.898;2023-07-13T05:02:39;19.20;;;11.67;;
19519;SDS011;9904;52.246;20.898;2023-07-13T05:05:09;15.30;;;9.23;;
19519;SDS011;9904;52.246;20.898;2023-07-13T05:07:36;20.90;;;11.93;;
19519;SDS011;9904;52.246;20.898;2023-07-13T05:10:03;22.53;;;11.93;;
19519;SDS011;9904;52.246;20.898;2023-07-13T05:12:30;29.10;;;13.80;;
19519;SDS011;9904;52.246;20.898;2023-07-13T05:14:57;20.87;;;12.83;;
19519;SDS011;9904;52.246;20.898;2023-07-13T05:17:23;24.07;;;12.80;;
19519;SDS011;9904;52.246;20.898;2023-07-13T05:19:50;20.53;;;12.80;;
19519;SDS011;9904;52.246;20.898;2023-07-13T05:22:16;20.53;;;11.97;;
19519;SDS011;9904;52.246;20.898;2023-07-13T05:24:43;18.07;;;11.70;;
19519;SDS011;9904;52.246;20.898;2023-07-13T05:27:11;17.13;;;11.17;;
19519;SDS011;9904;52.246;20.898;2023-07-13T05:29:38;20.57;;;12.00;;
19519;SDS011;9904;52.246;20.898;2023-07-13T05:32:04;16.17;;;10.07;;
19519;SDS011;9904;52.246;20.898;2023-07-13T05:34:31;17.47;;;10.40;;
19519;SDS011;9904;52.246;20.898;2023-07-13T05:36:58;18.07;;;12.13;;
19519;SDS011;9904;52.246;20.898;2023-07-13T05:39:25;23.00;;;12.50;;
19519;SDS011;9904;52.246;20.898;2023-07-13T05:41:52;20.27;;;13.07;;
19519;SDS011;9904;52.246;20.898;2023-07-13T05:44:19;19.33;;;12.63;;
19519;SDS011;9904;52.246;20.898;2023-07-13T05:46:46;21.37;;;12.33;;
19519;SDS011;9904;52.246;20.898;2023-07-13T05:49:12;18.80;;;13.10;;
19519;SDS011;9904;52.246;20.898;2023-07-13T05:51:39;22.30;;;14.03;;
19519;SDS011;9904;52.246;20.898;2023-07-13T05:54:05;28.77;;;13.83;;
19519;SDS011;9904;52.246;20.898;2023-07-13T05:56:32;21.83;;;13.47;;
19519;SDS011;9904;52.246;20.898;2023-07-13T05:58:59;22.53;;;13.40;;
19519;SDS011;9904;52.246;20.898;2023-07-13T06:01:25;18.47;;;12.70;;
19519;SDS011;9904;52.246;20.898;2023-07-13T06:03:52;18.37;;;11.37;;
19519;SDS011;9904;52.246;20.898;2023-07-13T06:06:19;18.27;;;12.90;;
19519;SDS011;9904;52.246;20.898;2023-07-13T06:08:46;19.13;;;12.03;;
19519;SDS011;9904;52.246;20.898;2023-07-13T06:11:17;24.17;;;14.30;;
19519;SDS011;9904;52.246;20.898;2023-07-13T06:13:45;20.93;;;13.13;;
19519;SDS011;9904;52.246;20.898;2023-07-13T06:16:13;19.60;;;13.50;;
19519;SDS011;9904;52.246;20.898;2023-07-13T06:18:40;21.30;;;13.93;;
19519;SDS011;9904;52.246;20.898;2023-07-13T06:21:11;19.90;;;13.60;;
19519;SDS011;9904;52.246;20.898;2023-07-13T06:23:40;23.73;;;15.17;;
19519;SDS011;9904;52.246;20.898;2023-07-13T06:26:07;25.13;;;14.80;;
19519;SDS011;9904;52.246;20.898;2023-07-13T06:28:34;21.23;;;10.98;;
19519;SDS011;9904;52.246;20.898;2023-07-13T06:31:02;21.30;;;13.02;;
19519;SDS011;9904;52.246;20.898;2023-07-13T06:33:32;18.15;;;9.70;;
19519;SDS011;9904;52.246;20.898;2023-07-13T06:35:59;21.73;;;12.68;;
19519;SDS011;9904;52.246;20.898;2023-07-13T06:38:26;23.52;;;11.73;;
19519;SDS011;9904;52.246;20.898;2023-07-13T06:40:53;21.08;;;13.30;;
19519;SDS011;9904;52.246;20.898;2023-07-13T06:43:19;23.40;;;12.57;;
19519;SDS011;9904;52.246;20.898;2023-07-13T06:45:47;21.63;;;10.27;;
19519;SDS011;9904;52.246;20.898;2023-07-13T06:48:16;18.88;;;8.20;;
19519;SDS011;9904;52.246;20.898;2023-07-13T06:50:43;17.20;;;9.18;;
19519;SDS011;9904;52.246;20.898;2023-07-13T06:53:12;18.80;;;8.55;;
19519;SDS011;9904;52.246;20.898;2023-07-13T06:55:39;17.40;;;7.97;;
19519;SDS011;9904;52.246;20.898;2023-07-13T06:58:06;14.38;;;8.57;;
19519;SDS011;9904;52.246;20.898;2023-07-13T07:00:33;15.25;;;8.60;;
19519;SDS011;9904;52.246;20.898;2023-07-13T07:03:00;11.85;;;7.90;;
19519;SDS011;9904;52.246;20.898;2023-07-13T07:05:27;12.15;;;6.40;;
19519;SDS011;9904;52.246;20.898;2023-07-13T07:07:54;7.28;;;3.80;;
19519;SDS011;9904;52.246;20.898;2023-07-13T07:10:21;4.88;;;3.70;;
19519;SDS011;9904;52.246;20.898;2023-07-13T07:12:48;8.15;;;4.40;;
19519;SDS011;9904;52.246;20.898;2023-07-13T07:15:15;10.68;;;5.28;;
19519;SDS011;9904;52.246;20.898;2023-07-13T07:17:42;9.23;;;4.72;;
19519;SDS011;9904;52.246;20.898;2023-07-13T07:20:10;11.18;;;4.28;;
19519;SDS011;9904;52.246;20.898;2023-07-13T07:22:37;9.63;;;4.70;;
19519;SDS011;9904;52.246;20.898;2023-07-13T07:25:04;7.88;;;4.57;;
19519;SDS011;9904;52.246;20.898;2023-07-13T07:27:30;7.85;;;4.88;;
19519;SDS011;9904;52.246;20.898;2023-07-13T07:30:00;7.05;;;3.90;;
19519;SDS011;9904;52.246;20.898;2023-07-13T07:32:30;6.90;;;3.75;;
19519;SDS011;9904;52.246;20.898;2023-07-13T07:35:17;7.78;;;4.18;;
19519;SDS011;9904;52.246;20.898;2023-07-13T07:37:46;8.15;;;4.60;;
19519;SDS011;9904;52.246;20.898;2023-07-13T07:40:16;5.70;;;3.85;;
19519;SDS011;9904;52.246;20.898;2023-07-13T07:42:46;9.73;;;4.10;;
19519;SDS011;9904;52.246;20.898;2023-07-13T07:45:14;9.55;;;4.93;;
19519;SDS011;9904;52.246;20.898;2023-07-13T07:47:41;10.85;;;5.07;;
19519;SDS011;9904;52.246;20.898;2023-07-13T07:50:08;11.38;;;4.82;;
19519;SDS011;9904;52.246;20.898;2023-07-13T07:52:35;6.40;;;4.18;;
19519;SDS011;9904;52.246;20.898;2023-07-13T07:55:03;9.38;;;3.60;;
19519;SDS011;9904;52.246;20.898;2023-07-13T07:57:33;8.18;;;4.20;;
19519;SDS011;9904;52.246;20.898;2023-07-13T08:00:20;7.63;;;3.53;;
19519;SDS011;9904;52.246;20.898;2023-07-13T08:02:50;6.57;;;4.13;;
19519;SDS011;9904;52.246;20.898;2023-07-13T08:05:20;6.78;;;4.20;;
19519;SDS011;9904;52.246;20.898;2023-07-13T08:08:02;8.70;;;4.47;;
19519;SDS011;9904;52.246;20.898;2023-07-13T08:10:29;7.22;;;3.50;;
19519;SDS011;9904;52.246;20.898;2023-07-13T08:12:56;6.57;;;3.70;;
19519;SDS011;9904;52.246;20.898;2023-07-13T08:15:26;7.78;;;3.45;;
19519;SDS011;9904;52.246;20.898;2023-07-13T08:17:52;7.68;;;4.47;;
19519;SDS011;9904;52.246;20.898;2023-07-13T08:20:20;7.10;;;3.90;;
19519;SDS011;9904;52.246;20.898;2023-07-13T08:22:47;5.78;;;3.58;;
19519;SDS011;9904;52.246;20.898;2023-07-13T08:25:14;7.57;;;3.85;;
19519;SDS011;9904;52.246;20.898;2023-07-13T08:27:40;5.78;;;3.85;;
19519;SDS011;9904;52.246;20.898;2023-07-13T08:30:07;10.07;;;4.72;;
19519;SDS011;9904;52.246;20.898;2023-07-13T08:32:35;8.35;;;4.05;;
19519;SDS011;9904;52.246;20.898;2023-07-13T08:35:03;8.95;;;4.13;;
19519;SDS011;9904;52.246;20.898;2023-07-13T08:37:30;10.93;;;4.35;;
19519;SDS011;9904;52.246;20.898;2023-07-13T08:39:57;9.88;;;4.10;;
19519;SDS011;9904;52.246;20.898;2023-07-13T08:42:31;8.68;;;4.13;;
19519;SDS011;9904;52.246;20.898;2023-07-13T08:47:54;15.15;;;4.22;;
19519;SDS011;9904;52.246;20.898;2023-07-13T08:50:27;10.90;;;4.30;;
19519;SDS011;9904;52.246;20.898;2023-07-13T08:52:58;8.40;;;4.30;;
19519;SDS011;9904;52.246;20.898;2023-07-13T08:55:26;8.07;;;4.70;;
19519;SDS011;9904;52.246;20.898;2023-07-13T08:58:14;10.60;;;4.80;;
19519;SDS011;9904;52.246;20.898;2023-07-13T09:00:52;16.00;;;4.90;;
19519;SDS011;9904;52.246;20.898;2023-07-13T09:03:31;6.50;;;4.55;;
19519;SDS011;9904;52.246;20.898;2023-07-13T09:06:06;8.38;;;5.22;;
19519;SDS011;9904;52.246;20.898;2023-07-13T09:16:21;9.23;;;4.93;;
19519;SDS011;9904;52.246;20.898;2023-07-13T09:18:49;9.50;;;5.22;;
19519;SDS011;9904;52.246;20.898;2023-07-13T09:21:18;9.57;;;4.78;;
19519;SDS011;9904;52.246;20.898;2023-07-13T09:23:48;8.95;;;5.03;;
19519;SDS011;9904;52.246;20.898;2023-07-13T09:26:19;9.23;;;4.88;;
19519;SDS011;9904;52.246;20.898;2023-07-13T09:28:55;8.50;;;4.90;;
19519;SDS011;9904;52.246;20.898;2023-07-13T09:31:28;13.25;;;4.80;;
19519;SDS011;9904;52.246;20.898;2023-07-13T09:34:00;9.37;;;4.33;;
19519;SDS011;9904;52.246;20.898;2023-07-13T09:36:28;8.47;;;4.60;;
19519;SDS011;9904;52.246;20.898;2023-07-13T09:41:47;11.87;;;3.77;;
19519;SDS011;9904;52.246;20.898;2023-07-13T09:44:16;9.40;;;3.65;;
19519;SDS011;9904;52.246;20.898;2023-07-13T09:46:45;7.63;;;3.25;;
19519;SDS011;9904;52.246;20.898;2023-07-13T09:49:14;7.30;;;2.77;;
19519;SDS011;9904;52.246;20.898;2023-07-13T09:51:41;5.87;;;2.60;;
19519;SDS011;9904;52.246;20.898;2023-07-13T09:54:21;4.60;;;2.60;;
19519;SDS011;9904;52.246;20.898;2023-07-13T09:56:57;6.33;;;3.30;;
19519;SDS011;9904;52.246;20.898;2023-07-13T09:59:28;6.70;;;2.80;;
19519;SDS011;9904;52.246;20.898;2023-07-13T10:01:56;6.63;;;3.40;;
19519;SDS011;9904;52.246;20.898;2023-07-13T10:04:29;6.43;;;3.20;;
19519;SDS011;9904;52.246;20.898;2023-07-13T10:07:06;5.93;;;3.67;;
19519;SDS011;9904;52.246;20.898;2023-07-13T10:09:54;5.50;;;3.20;;
19519;SDS011;9904;52.246;20.898;2023-07-13T10:12:22;5.80;;;3.37;;
19519;SDS011;9904;52.246;20.898;2023-07-13T10:14:52;9.10;;;3.80;;
19519;SDS011;9904;52.246;20.898;2023-07-13T10:17:33;8.73;;;3.67;;
19519;SDS011;9904;52.246;20.898;2023-07-13T10:20:04;7.07;;;3.60;;
19519;SDS011;9904;52.246;20.898;2023-07-13T10:23:15;14.47;;;4.47;;
19519;SDS011;9904;52.246;20.898;2023-07-13T10:25:26;12.00;;;4.47;;
19519;SDS011;9904;52.246;20.898;2023-07-13T10:28:23;9.57;;;4.60;;
19519;SDS011;9904;52.246;20.898;2023-07-13T10:30:55;14.30;;;5.20;;
19519;SDS011;9904;52.246;20.898;2023-07-13T10:33:23;12.73;;;5.53;;
19519;SDS011;9904;52.246;20.898;2023-07-13T10:35:51;13.53;;;5.63;;
19519;SDS011;9904;52.246;20.898;2023-07-13T10:38:22;22.17;;;6.33;;
19519;SDS011;9904;52.246;20.898;2023-07-13T10:43:18;11.33;;;6.20;;
19519;SDS011;9904;52.246;20.898;2023-07-13T10:45:46;19.50;;;6.87;;
19519;SDS011;9904;52.246;20.898;2023-07-13T10:48:16;16.27;;;6.60;;
19519;SDS011;9904;52.246;20.898;2023-07-13T10:50:44;16.80;;;6.00;;
19519;SDS011;9904;52.246;20.898;2023-07-13T10:53:17;15.50;;;6.50;;
19519;SDS011;9904;52.246;20.898;2023-07-13T10:58:18;17.30;;;6.10;;
19519;SDS011;9904;52.246;20.898;2023-07-13T11:11:59;18.43;;;10.57;;
19519;SDS011;9904;52.246;20.898;2023-07-13T11:17:24;18.00;;;9.67;;
19519;SDS011;9904;52.246;20.898;2023-07-13T11:25:54;8.60;;;5.50;;
19519;SDS011;9904;52.246;20.898;2023-07-13T11:28:22;9.30;;;5.70;;
19519;SDS011;9904;52.246;20.898;2023-07-13T11:33:23;11.33;;;6.30;;
19519;SDS011;9904;52.246;20.898;2023-07-13T11:38:24;11.83;;;5.90;;
19519;SDS011;9904;52.246;20.898;2023-07-13T11:40:55;10.43;;;6.17;;
19519;SDS011;9904;52.246;20.898;2023-07-13T11:43:22;12.33;;;6.43;;
19519;SDS011;9904;52.246;20.898;2023-07-13T11:45:52;15.87;;;6.60;;
19519;SDS011;9904;52.246;20.898;2023-07-13T11:48:28;13.07;;;6.03;;
19519;SDS011;9904;52.246;20.898;2023-07-13T11:51:01;14.03;;;6.33;;
19519;SDS011;9904;52.246;20.898;2023-07-13T11:53:44;8.20;;;5.53;;
19519;SDS011;9904;52.246;20.898;2023-07-13T11:56:13;9.33;;;5.93;;
19519;SDS011;9904;52.246;20.898;2023-07-13T11:58:40;10.47;;;5.83;;
19519;SDS011;9904;52.246;20.898;2023-07-13T12:01:15;10.97;;;6.07;;
19519;SDS011;9904;52.246;20.898;2023-07-13T12:03:44;12.70;;;6.40;;
19519;SDS011;9904;52.246;20.898;2023-07-13T12:08:58;8.30;;;5.70;;
19519;SDS011;9904;52.246;20.898;2023-07-13T12:11:29;10.27;;;5.93;;
19519;SDS011;9904;52.246;20.898;2023-07-13T12:13:57;10.07;;;5.47;;
19519;SDS011;9904;52.246;20.898;2023-07-13T12:16:26;9.37;;;5.20;;
19519;SDS011;9904;52.246;20.898;2023-07-13T12:18:56;12.47;;;5.83;;
19519;SDS011;9904;52.246;20.898;2023-07-13T12:21:29;12.13;;;6.17;;
19519;SDS011;9904;52.246;20.898;2023-07-13T12:23:57;13.03;;;6.90;;
19519;SDS011;9904;52.246;20.898;2023-07-13T12:26:24;13.30;;;7.47;;
19519;SDS011;9904;52.246;20.898;2023-07-13T12:28:53;18.10;;;7.97;;
19519;SDS011;9904;52.246;20.898;2023-07-13T12:31:31;16.73;;;7.47;;
19519;SDS011;9904;52.246;20.898;2023-07-13T12:34:09;15.07;;;7.23;;
19519;SDS011;9904;52.246;20.898;2023-07-13T12:36:38;14.90;;;7.37;;
19519;SDS011;9904;52.246;20.898;2023-07-13T12:39:15;17.37;;;7.90;;
19519;SDS011;9904;52.246;20.898;2023-07-13T12:41:48;17.10;;;8.10;;
19519;SDS011;9904;52.246;20.898;2023-07-13T12:44:17;12.27;;;7.30;;
19519;SDS011;9904;52.246;20.898;2023-07-13T12:46:52;14.50;;;7.20;;
19519;SDS011;9904;52.246;20.898;2023-07-13T12:49:23;12.10;;;7.80;;
19519;SDS011;9904;52.246;20.898;2023-07-13T12:51:59;19.40;;;8.20;;
19519;SDS011;9904;52.246;20.898;2023-07-13T12:54:26;17.07;;;8.40;;
19519;SDS011;9904;52.246;20.898;2023-07-13T12:56:54;11.37;;;7.17;;
19519;SDS011;9904;52.246;20.898;2023-07-13T12:59:24;15.23;;;6.87;;
19519;SDS011;9904;52.246;20.898;2023-07-13T13:01:53;13.70;;;7.30;;
19519;SDS011;9904;52.246;20.898;2023-07-13T13:04:21;14.87;;;6.80;;
19519;SDS011;9904;52.246;20.898;2023-07-13T13:06:48;10.20;;;6.03;;
19519;SDS011;9904;52.246;20.898;2023-07-13T13:09:16;14.33;;;7.20;;
19519;SDS011;9904;52.246;20.898;2023-07-13T13:11:44;13.60;;;6.93;;
19519;SDS011;9904;52.246;20.898;2023-07-13T13:14:12;14.00;;;7.20;;
19519;SDS011;9904;52.246;20.898;2023-07-13T13:16:45;11.73;;;6.47;;
19519;SDS011;9904;52.246;20.898;2023-07-13T13:19:16;13.63;;;6.63;;
19519;SDS011;9904;52.246;20.898;2023-07-13T13:21:45;10.57;;;6.03;;
19519;SDS011;9904;52.246;20.898;2023-07-13T13:24:14;13.00;;;6.33;;
19519;SDS011;9904;52.246;20.898;2023-07-13T13:26:42;12.40;;;6.03;;
19519;SDS011;9904;52.246;20.898;2023-07-13T13:29:13;14.03;;;7.13;;
19519;SDS011;9904;52.246;20.898;2023-07-13T13:31:42;22.13;;;12.57;;
19519;SDS011;9904;52.246;20.898;2023-07-13T13:34:14;28.40;;;15.33;;
19519;SDS011;9904;52.246;20.898;2023-07-13T13:36:42;29.83;;;15.57;;
19519;SDS011;9904;52.246;20.898;2023-07-13T13:39:33;20.90;;;12.63;;
19519;SDS011;9904;52.246;20.898;2023-07-13T13:42:01;18.37;;;10.47;;
19519;SDS011;9904;52.246;20.898;2023-07-13T13:44:27;13.83;;;8.07;;
19519;SDS011;9904;52.246;20.898;2023-07-13T13:46:55;12.77;;;7.63;;
19519;SDS011;9904;52.246;20.898;2023-07-13T13:49:23;14.30;;;8.20;;
19519;SDS011;9904;52.246;20.898;2023-07-13T13:51:51;13.43;;;6.80;;
19519;SDS011;9904;52.246;20.898;2023-07-13T13:54:19;13.43;;;7.80;;
19519;SDS011;9904;52.246;20.898;2023-07-13T13:56:47;13.97;;;7.73;;
19519;SDS011;9904;52.246;20.898;2023-07-13T13:59:14;15.87;;;8.40;;
19519;SDS011;9904;52.246;20.898;2023-07-13T14:01:44;13.43;;;8.33;;
19519;SDS011;9904;52.246;20.898;2023-07-13T14:04:20;11.40;;;7.30;;
19519;SDS011;9904;52.246;20.898;2023-07-13T14:06:47;13.10;;;8.97;;
19519;SDS011;9904;52.246;20.898;2023-07-13T14:09:15;15.57;;;9.60;;
19519;SDS011;9904;52.246;20.898;2023-07-13T14:11:45;13.13;;;8.93;;
19519;SDS011;9904;52.246;20.898;2023-07-13T14:14:17;13.67;;;9.13;;
19519;SDS011;9904;52.246;20.898;2023-07-13T14:16:46;18.53;;;9.37;;
19519;SDS011;9904;52.246;20.898;2023-07-13T14:19:19;19.97;;;8.90;;
19519;SDS011;9904;52.246;20.898;2023-07-13T14:21:46;17.30;;;8.70;;
19519;SDS011;9904;52.246;20.898;2023-07-13T14:24:15;16.07;;;7.23;;
19519;SDS011;9904;52.246;20.898;2023-07-13T14:26:42;16.57;;;8.20;;
19519;SDS011;9904;52.246;20.898;2023-07-13T14:29:13;17.07;;;8.63;;
19519;SDS011;9904;52.246;20.898;2023-07-13T14:31:41;13.13;;;8.83;;
19519;SDS011;9904;52.246;20.898;2023-07-13T14:34:10;13.40;;;8.13;;
19519;SDS011;9904;52.246;20.898;2023-07-13T14:36:41;12.30;;;7.63;;
19519;SDS011;9904;52.246;20.898;2023-07-13T14:39:15;14.37;;;7.83;;
19519;SDS011;9904;52.246;20.898;2023-07-13T14:41:43;17.53;;;7.33;;
19519;SDS011;9904;52.246;20.898;2023-07-13T14:44:12;16.60;;;7.87;;
19519;SDS011;9904;52.246;20.898;2023-07-13T14:46:40;15.03;;;8.30;;
19519;SDS011;9904;52.246;20.898;2023-07-13T14:52:03;15.70;;;9.27;;
19519;SDS011;9904;52.246;20.898;2023-07-13T14:54:37;19.00;;;8.67;;
19519;SDS011;9904;52.246;20.898;2023-07-13T14:57:10;16.20;;;8.47;;
19519;SDS011;9904;52.246;20.898;2023-07-13T14:59:41;18.63;;;9.67;;
19519;SDS011;9904;52.246;20.898;2023-07-13T15:02:14;17.00;;;9.37;;
19519;SDS011;9904;52.246;20.898;2023-07-13T15:04:42;15.73;;;9.10;;
19519;SDS011;9904;52.246;20.898;2023-07-13T15:07:10;17.60;;;9.10;;
19519;SDS011;9904;52.246;20.898;2023-07-13T15:09:37;16.60;;;8.63;;
19519;SDS011;9904;52.246;20.898;2023-07-13T15:12:04;14.60;;;8.33;;
19519;SDS011;9904;52.246;20.898;2023-07-13T15:14:31;13.20;;;8.00;;
19519;SDS011;9904;52.246;20.898;2023-07-13T15:16:58;17.50;;;8.17;;
19519;SDS011;9904;52.246;20.898;2023-07-13T15:19:26;13.23;;;7.53;;
19519;SDS011;9904;52.246;20.898;2023-07-13T15:21:53;14.83;;;7.27;;
19519;SDS011;9904;52.246;20.898;2023-07-13T15:24:22;13.67;;;7.30;;
19519;SDS011;9904;52.246;20.898;2023-07-13T15:26:48;14.03;;;7.80;;
19519;SDS011;9904;52.246;20.898;2023-07-13T15:29:16;14.23;;;8.47;;
19519;SDS011;9904;52.246;20.898;2023-07-13T15:31:43;14.43;;;7.33;;